createdAt,value
2023-03-21T00:01:55.364Z,95.00
2023-03-21T00:04:28.365Z,94.76
2023-03-21T00:06:56.991Z,94.71
2023-03-21T00:09:24.594Z,94.43
2023-03-21T00:11:51.867Z,94.16
2023-03-21T00:14:20.295Z,93.84
2023-03-21T00:16:52.185Z,94.14
2023-03-21T00:19:21.129Z,94.00
2023-03-21T00:22:08.746Z,94.82
2023-03-21T00:24:37.850Z,95.01
2023-03-21T00:27:30.257Z,95.40
2023-03-21T00:29:53.674Z,95.51
2023-03-21T00:32:22.170Z,95.77
2023-03-21T00:35:34.750Z,95.94
2023-03-21T00:37:37.607Z,96.21
2023-03-21T00:40:23.078Z,96.98
2023-03-21T00:42:53.001Z,97.48
2023-03-21T00:45:22.100Z,97.68
2023-03-21T00:47:49.893Z,98.16
2023-03-21T00:50:18.227Z,98.18
2023-03-21T00:52:45.619Z,98.19
2023-03-21T00:55:19.889Z,98.85
2023-03-21T00:57:50.200Z,98.92
2023-03-21T01:00:23.990Z,99.37
2023-03-21T01:03:04.262Z,99.39
2023-03-21T01:06:01.195Z,100.00
2023-03-21T01:08:33.225Z,100.00
2023-03-21T01:11:17.864Z,100.00
2023-03-21T01:13:53.785Z,100.00
2023-03-21T01:16:25.907Z,100.00
2023-03-21T01:18:54.294Z,100.00
2023-03-21T01:21:22.319Z,100.00
2023-03-21T01:23:49.617Z,100.00
2023-03-21T01:26:17.268Z,100.00
2023-03-21T01:28:45.574Z,100.00
2023-03-21T01:31:16.941Z,100.00
2023-03-21T01:33:44.810Z,100.00
2023-03-21T01:36:24.510Z,100.00
2023-03-21T01:38:53.189Z,100.00
2023-03-21T01:41:44.129Z,100.00
2023-03-21T01:44:19.735Z,100.00
2023-03-21T01:47:09.667Z,100.00
2023-03-21T01:49:48.011Z,100.00
2023-03-21T01:52:33.843Z,100.00
2023-03-21T01:55:11.944Z,100.00
2023-03-21T01:58:04.009Z,100.00
2023-03-21T02:00:34.077Z,100.00
2023-03-21T02:03:16.979Z,100.00
2023-03-21T02:06:08.622Z,100.00
2023-03-21T02:08:39.499Z,100.00
2023-03-21T02:11:10.234Z,100.00
2023-03-21T02:13:38.265Z,100.00
2023-03-21T02:16:52.715Z,100.00
2023-03-21T02:20:15.826Z,100.00
2023-03-21T02:23:23.188Z,100.00
2023-03-21T02:26:41.959Z,100.00
2023-03-21T02:29:38.267Z,100.00
2023-03-21T02:32:40.559Z,100.00
2023-03-21T02:36:00.600Z,100.00
2023-03-21T02:38:43.730Z,100.00
2023-03-21T02:41:27.475Z,100.00
2023-03-21T02:44:12.953Z,100.00
2023-03-21T02:47:05.971Z,100.00
2023-03-21T02:50:07.433Z,100.00
2023-03-21T02:52:39.851Z,100.00
2023-03-21T02:55:27.304Z,100.00
2023-03-21T02:58:06.958Z,100.00
2023-03-21T03:00:42.962Z,100.00
2023-03-21T03:03:20.957Z,100.00
2023-03-21T03:06:02.636Z,100.00
2023-03-21T03:09:01.112Z,100.00
2023-03-21T03:11:37.057Z,100.00
2023-03-21T03:14:53.170Z,100.00
2023-03-21T03:17:42.494Z,100.00
2023-03-21T03:20:39.129Z,100.00
2023-03-21T03:23:35.865Z,100.00
2023-03-21T03:26:09.220Z,100.00
2023-03-21T03:28:45.023Z,100.00
2023-03-21T03:31:21.997Z,100.00
2023-03-21T03:33:54.877Z,100.00
2023-03-21T03:36:32.818Z,100.00
2023-03-21T03:39:09.076Z,100.00
2023-03-21T03:42:06.066Z,100.00
2023-03-21T03:44:33.550Z,100.00
2023-03-21T03:47:29.855Z,100.00
2023-03-21T03:50:20.757Z,100.00
2023-03-21T03:53:07.098Z,100.00
2023-03-21T03:55:38.886Z,100.00
2023-03-21T03:58:13.194Z,100.00
2023-03-21T04:00:49.516Z,100.00
2023-03-21T04:03:16.899Z,100.00
2023-03-21T04:05:47.783Z,100.00
2023-03-21T04:08:16.758Z,100.00
2023-03-21T04:10:44.762Z,100.00
2023-03-21T04:13:12.081Z,100.00
2023-03-21T04:15:39.674Z,100.00
2023-03-21T04:18:07.241Z,100.00
2023-03-21T04:20:37.269Z,100.00
2023-03-21T04:23:06.098Z,100.00
2023-03-21T04:25:44.686Z,100.00
2023-03-21T04:28:15.121Z,100.00
2023-03-21T04:30:52.030Z,100.00
2023-03-21T04:33:28.264Z,100.00
2023-03-21T04:35:56.398Z,100.00
2023-03-21T04:38:25.211Z,100.00
2023-03-21T04:40:52.951Z,100.00
2023-03-21T04:43:20.884Z,100.00
2023-03-21T04:45:48.394Z,100.00
2023-03-21T04:48:16.212Z,100.00
2023-03-21T04:50:45.446Z,100.00
2023-03-21T04:53:13.188Z,100.00
2023-03-21T04:55:40.706Z,100.00
2023-03-21T04:58:08.540Z,100.00
2023-03-21T05:00:39.141Z,100.00
2023-03-21T05:03:09.231Z,100.00
2023-03-21T05:05:38.627Z,100.00
2023-03-21T05:08:06.542Z,100.00
2023-03-21T05:10:34.446Z,100.00
2023-03-21T05:13:01.707Z,100.00
2023-03-21T05:15:29.321Z,100.00
2023-03-21T05:17:58.713Z,100.00
2023-03-21T05:20:26.512Z,100.00
2023-03-21T05:22:53.761Z,100.00
2023-03-21T05:25:35.421Z,100.00
2023-03-21T05:28:02.855Z,100.00
2023-03-21T05:30:31.051Z,100.00
2023-03-21T05:32:58.562Z,100.00
2023-03-21T05:35:27.041Z,100.00
2023-03-21T05:37:54.402Z,100.00
2023-03-21T05:40:22.384Z,100.00
2023-03-21T05:42:49.642Z,100.00
2023-03-21T05:45:17.345Z,100.00
2023-03-21T05:47:44.638Z,100.00
2023-03-21T05:50:13.726Z,100.00
2023-03-21T05:52:41.092Z,100.00
2023-03-21T05:55:08.931Z,99.27
2023-03-21T05:57:39.321Z,99.09
2023-03-21T06:00:09.069Z,99.03
2023-03-21T06:02:36.431Z,98.71
2023-03-21T06:05:04.413Z,98.48
2023-03-21T06:07:32.057Z,97.64
2023-03-21T06:09:59.637Z,97.63
2023-03-21T06:12:26.986Z,97.20
2023-03-21T06:14:54.601Z,96.52
2023-03-21T06:17:22.177Z,95.96
2023-03-21T06:19:49.869Z,95.05
2023-03-21T06:22:17.085Z,94.85
2023-03-21T06:24:44.684Z,94.79
2023-03-21T06:27:12.273Z,95.01
2023-03-21T06:29:39.990Z,94.64
2023-03-21T06:32:07.739Z,94.94
2023-03-21T06:34:35.314Z,94.95
2023-03-21T06:37:04.124Z,95.12
2023-03-21T06:39:33.202Z,95.10
2023-03-21T06:42:01.419Z,94.79
2023-03-21T06:44:29.472Z,94.64
2023-03-21T06:46:56.914Z,94.15
2023-03-21T06:49:26.906Z,93.48
2023-03-21T06:51:54.244Z,93.04
2023-03-21T06:54:22.159Z,93.05
2023-03-21T06:56:49.585Z,93.32
2023-03-21T06:59:17.529Z,93.82
2023-03-21T07:01:44.960Z,93.77
2023-03-21T07:04:12.791Z,94.19
2023-03-21T07:06:40.113Z,93.88
2023-03-21T07:09:07.724Z,93.49
2023-03-21T07:11:37.039Z,93.08
2023-03-21T07:14:05.045Z,93.71
2023-03-21T07:16:32.881Z,93.98
2023-03-21T07:19:00.834Z,93.81
2023-03-21T07:21:28.228Z,94.52
2023-03-21T07:23:55.728Z,95.12
2023-03-21T07:26:22.989Z,95.58
2023-03-21T07:28:50.671Z,95.43
2023-03-21T07:31:19.578Z,95.68
2023-03-21T07:33:47.248Z,95.64
2023-03-21T07:36:16.311Z,95.61
2023-03-21T07:38:46.069Z,95.41
2023-03-21T07:43:46.795Z,94.85
2023-03-21T07:46:14.232Z,94.20
2023-03-21T07:48:42.092Z,93.76
2023-03-21T07:51:09.716Z,93.47
2023-03-21T07:53:37.412Z,92.40
2023-03-21T07:56:05.773Z,92.87
2023-03-21T07:58:34.458Z,93.30
2023-03-21T08:01:02.425Z,94.13
2023-03-21T08:03:32.792Z,93.55
2023-03-21T08:06:03.934Z,91.93
2023-03-21T08:08:31.554Z,91.60
2023-03-21T08:10:58.889Z,91.45
2023-03-21T08:13:26.724Z,91.48
2023-03-21T08:15:54.184Z,91.35
2023-03-21T08:18:22.182Z,90.59
2023-03-21T08:20:57.745Z,90.53
2023-03-21T08:23:26.016Z,90.55
2023-03-21T08:25:55.938Z,90.98
2023-03-21T08:28:25.099Z,92.06
2023-03-21T08:30:52.473Z,91.59
2023-03-21T08:33:20.943Z,91.00
2023-03-21T08:35:48.472Z,89.97
2023-03-21T08:38:17.066Z,89.60
2023-03-21T08:40:44.377Z,88.82
2023-03-21T08:43:14.657Z,88.87
2023-03-21T08:45:42.296Z,88.59
2023-03-21T08:48:09.887Z,87.86
2023-03-21T08:50:37.474Z,86.99
2023-03-21T08:53:05.114Z,85.86
2023-03-21T08:55:33.253Z,85.66
2023-03-21T08:58:02.124Z,85.49
2023-03-21T09:00:29.940Z,85.46
2023-03-21T09:02:58.953Z,84.55
2023-03-21T09:05:27.244Z,83.77
2023-03-21T09:07:55.088Z,82.42
2023-03-21T09:10:24.382Z,78.67
2023-03-21T09:12:54.801Z,76.00
2023-03-21T09:15:28.971Z,76.77
2023-03-21T09:17:58.813Z,78.50
2023-03-21T09:20:31.362Z,79.37
2023-03-21T09:23:02.035Z,80.11
2023-03-21T09:25:32.721Z,79.74
2023-03-21T09:28:05.300Z,79.78
2023-03-21T09:30:36.693Z,79.84
2023-03-21T09:33:09.779Z,79.68
2023-03-21T09:35:37.709Z,79.86
2023-03-21T09:38:05.761Z,78.88
2023-03-21T09:41:09.397Z,78.49
2023-03-21T09:44:12.134Z,76.45
2023-03-21T09:47:03.926Z,76.37
2023-03-21T09:49:42.200Z,77.18
2023-03-21T09:52:23.962Z,76.54
2023-03-21T09:54:55.734Z,76.81
2023-03-21T09:57:41.908Z,75.48
2023-03-21T10:04:29.092Z,75.66
2023-03-21T10:07:02.271Z,76.67
2023-03-21T10:09:32.680Z,76.83
2023-03-21T10:12:30.685Z,75.31
2023-03-21T10:15:02.092Z,75.13
2023-03-21T10:17:43.584Z,75.26
2023-03-21T10:20:18.443Z,74.38
2023-03-21T10:22:48.957Z,74.92
2023-03-21T10:25:22.427Z,75.27
2023-03-21T10:27:52.790Z,74.25
2023-03-21T10:34:47.043Z,71.94
2023-03-21T10:37:16.929Z,71.64
2023-03-21T10:39:50.848Z,72.25
2023-03-21T10:42:32.884Z,71.33
2023-03-21T10:45:00.331Z,70.73
2023-03-21T10:47:34.024Z,70.71
2023-03-21T10:50:16.214Z,69.95
2023-03-21T10:53:00.796Z,69.25
2023-03-21T10:55:34.735Z,68.86
2023-03-21T10:58:19.064Z,69.02
2023-03-21T11:00:48.199Z,68.91
2023-03-21T11:03:32.385Z,69.01
2023-03-21T11:06:11.526Z,68.76
2023-03-21T11:09:16.934Z,67.74
2023-03-21T11:12:13.345Z,67.25
2023-03-21T11:14:46.832Z,67.85
2023-03-21T11:17:17.089Z,67.44
2023-03-21T11:20:06.080Z,65.30
2023-03-21T11:22:43.601Z,63.64
2023-03-21T11:25:32.907Z,61.67
2023-03-21T11:28:09.413Z,56.41
2023-03-21T11:30:37.056Z,55.13
2023-03-21T11:33:07.048Z,53.23
2023-03-21T11:35:39.388Z,53.28
2023-03-21T11:38:26.416Z,53.92
2023-03-21T11:41:01.018Z,53.58
2023-03-21T11:43:40.060Z,54.59
2023-03-21T11:46:14.898Z,55.33
2023-03-21T11:48:50.443Z,56.86
2023-03-21T11:51:41.265Z,58.62
2023-03-21T11:54:14.500Z,59.94
2023-03-21T11:56:51.037Z,61.92
2023-03-21T11:59:43.171Z,62.27
2023-03-21T12:02:55.418Z,63.42
2023-03-21T12:06:00.404Z,64.41
2023-03-21T12:09:16.252Z,65.25
2023-03-21T12:12:30.005Z,65.50
2023-03-21T12:15:27.141Z,65.63
2023-03-21T12:18:16.137Z,65.75
2023-03-21T12:20:53.747Z,66.27
2023-03-21T12:24:05.950Z,67.22
2023-03-21T12:27:02.730Z,67.74
2023-03-21T12:29:30.218Z,68.15
2023-03-21T12:32:06.693Z,69.46
2023-03-21T12:35:00.288Z,69.40
2023-03-21T12:37:39.361Z,69.47
2023-03-21T12:40:39.671Z,70.12
2023-03-21T12:43:36.861Z,69.92
2023-03-21T12:46:26.737Z,70.73
2023-03-21T12:49:07.870Z,70.94
2023-03-21T12:51:44.819Z,71.04
2023-03-21T12:54:46.903Z,70.42
2023-03-21T12:57:35.621Z,70.49
2023-03-21T13:00:17.686Z,70.47
2023-03-21T13:02:57.617Z,70.43
2023-03-21T13:05:41.204Z,70.44
2023-03-21T13:08:26.424Z,70.03
2023-03-21T13:10:57.518Z,70.63
2023-03-21T13:13:59.446Z,69.85
2023-03-21T13:16:45.214Z,69.32
2023-03-21T13:19:47.788Z,69.11
2023-03-21T13:22:29.070Z,68.56
2023-03-21T13:25:23.138Z,68.08
2023-03-21T13:28:01.776Z,67.89
2023-03-21T13:30:34.022Z,67.76
2023-03-21T13:33:21.784Z,67.22
2023-03-21T13:36:05.666Z,67.18
2023-03-21T13:38:40.152Z,66.22
2023-03-21T13:41:16.983Z,66.05
2023-03-21T13:44:05.997Z,65.75
2023-03-21T13:46:54.206Z,64.45
2023-03-21T13:49:41.682Z,63.74
2023-03-21T13:52:29.277Z,63.35
2023-03-21T13:54:58.247Z,63.15
2023-03-21T13:57:30.516Z,63.18
2023-03-21T14:00:29.538Z,62.73
2023-03-21T14:03:17.649Z,62.10
2023-03-21T14:09:38.258Z,60.31
2023-03-21T14:12:14.325Z,60.17
2023-03-21T14:14:48.972Z,59.71
2023-03-21T14:17:33.025Z,58.99
2023-03-21T14:20:18.475Z,59.40
2023-03-21T14:22:48.820Z,59.18
2023-03-21T14:25:21.232Z,58.28
2023-03-21T14:27:57.188Z,58.52
2023-03-21T14:30:34.895Z,59.41
2023-03-21T14:33:24.045Z,59.84
2023-03-21T14:35:53.066Z,60.01
2023-03-21T14:38:34.740Z,60.68
2023-03-21T14:41:02.660Z,61.95
2023-03-21T14:43:34.079Z,62.59
2023-03-21T14:46:02.005Z,63.32
2023-03-21T14:48:35.510Z,63.76
2023-03-21T14:51:09.663Z,64.67
2023-03-21T14:53:42.658Z,65.14
2023-03-21T14:56:26.064Z,66.02
2023-03-21T14:58:55.051Z,66.18
2023-03-21T15:01:34.837Z,67.10
2023-03-21T15:04:07.634Z,68.02
2023-03-21T15:06:52.247Z,68.27
2023-03-21T15:09:22.954Z,68.18
2023-03-21T15:11:53.332Z,68.78
2023-03-21T15:14:36.826Z,69.10
2023-03-21T15:17:08.467Z,69.33
2023-03-21T15:19:43.774Z,69.47
2023-03-21T15:22:43.498Z,69.20
2023-03-21T15:25:20.184Z,69.43
2023-03-21T15:27:51.075Z,69.18
2023-03-21T15:30:30.456Z,69.40
2023-03-21T15:33:07.745Z,70.00
2023-03-21T15:35:46.202Z,70.37
2023-03-21T15:38:24.191Z,70.46
2023-03-21T15:40:52.253Z,70.43
2023-03-21T15:43:20.468Z,71.05
2023-03-21T15:45:54.428Z,71.45
2023-03-21T15:48:29.680Z,71.32
2023-03-21T15:51:23.787Z,71.69
2023-03-21T15:53:56.651Z,71.61
2023-03-21T15:56:25.211Z,71.85
2023-03-21T15:58:53.488Z,72.02
2023-03-21T16:01:26.466Z,71.91
2023-03-21T16:04:13.369Z,72.12
2023-03-21T16:06:53.770Z,72.86
2023-03-21T16:09:23.813Z,73.52
2023-03-21T16:11:59.817Z,72.95
2023-03-21T16:18:29.559Z,72.95
2023-03-21T16:20:59.333Z,72.51
2023-03-21T16:23:27.129Z,72.25
2023-03-21T16:25:58.289Z,72.36
2023-03-21T16:28:25.737Z,72.62
2023-03-21T16:30:53.334Z,72.43
2023-03-21T16:33:21.975Z,72.60
2023-03-21T16:35:49.608Z,72.33
2023-03-21T16:38:16.908Z,72.27
2023-03-21T16:40:45.096Z,72.26
2023-03-21T16:43:12.631Z,72.61
2023-03-21T16:45:40.535Z,72.59
2023-03-21T16:48:09.134Z,72.58
2023-03-21T16:50:47.558Z,72.58
2023-03-21T16:53:14.970Z,72.40
2023-03-21T16:55:42.743Z,72.46
2023-03-21T16:58:15.710Z,72.42
2023-03-21T17:00:43.584Z,72.51
2023-03-21T17:03:21.677Z,72.45
2023-03-21T17:05:49.623Z,72.49
2023-03-21T17:08:19.928Z,72.56
2023-03-21T17:10:47.663Z,72.60
2023-03-21T17:13:15.012Z,72.58
2023-03-21T17:15:42.675Z,72.61
2023-03-21T17:18:12.373Z,73.11
2023-03-21T17:20:41.855Z,72.81
2023-03-21T17:23:10.361Z,72.98
2023-03-21T17:25:38.942Z,73.19
2023-03-21T17:28:06.356Z,73.31
2023-03-21T17:30:36.936Z,73.65
2023-03-21T17:33:04.437Z,74.09
2023-03-21T17:35:32.409Z,74.22
2023-03-21T17:37:59.872Z,74.26
2023-03-21T17:40:32.081Z,74.24
2023-03-21T17:43:02.620Z,74.67
2023-03-21T17:45:30.569Z,75.13
2023-03-21T17:47:58.133Z,75.04
2023-03-21T17:50:31.466Z,75.24
2023-03-21T17:52:58.916Z,75.55
2023-03-21T17:55:26.725Z,76.23
2023-03-21T17:57:54.100Z,76.36
2023-03-21T18:00:26.739Z,76.30
2023-03-21T18:02:54.851Z,76.94
2023-03-21T18:05:24.981Z,77.37
2023-03-21T18:08:11.321Z,78.04
2023-03-21T18:10:42.146Z,77.79
2023-03-21T18:13:10.123Z,77.61
2023-03-21T18:15:38.535Z,78.43
2023-03-21T18:18:06.029Z,78.42
2023-03-21T18:21:03.984Z,79.08
2023-03-21T18:23:21.609Z,79.50
2023-03-21T18:25:50.026Z,79.71
2023-03-21T18:28:20.488Z,80.61
2023-03-21T18:31:09.442Z,81.50
2023-03-21T18:33:41.769Z,82.12
2023-03-21T18:36:14.106Z,81.67
2023-03-21T18:38:42.996Z,81.83
2023-03-21T18:41:12.151Z,81.41
2023-03-21T18:46:27.462Z,81.39
2023-03-21T18:48:55.259Z,81.31
2023-03-21T18:51:23.197Z,81.12
2023-03-21T18:53:50.752Z,81.12
2023-03-21T18:57:05.698Z,80.96
2023-03-21T18:59:07.565Z,80.96
2023-03-21T19:01:35.997Z,81.03
2023-03-21T19:04:20.704Z,80.80
2023-03-21T19:06:50.360Z,80.80
2023-03-21T19:09:19.234Z,81.45
2023-03-21T19:11:47.966Z,81.71
2023-03-21T19:14:18.731Z,82.04
2023-03-21T19:17:34.302Z,83.53
2023-03-21T19:19:35.055Z,83.91
2023-03-21T19:22:04.364Z,84.35
2023-03-21T19:24:32.738Z,84.06
2023-03-21T19:27:00.506Z,84.09
2023-03-21T19:29:28.856Z,84.30
2023-03-21T19:31:56.880Z,83.80
2023-03-21T19:34:24.224Z,83.56
2023-03-21T19:36:52.638Z,84.20
2023-03-21T19:39:22.798Z,84.30
2023-03-21T19:41:55.226Z,84.58
2023-03-21T19:44:29.485Z,84.50
2023-03-21T19:46:57.037Z,84.28
2023-03-21T19:49:34.698Z,84.21
2023-03-21T19:52:13.451Z,84.49
2023-03-21T19:54:40.802Z,84.34
2023-03-21T19:57:09.877Z,84.83
2023-03-21T19:59:37.831Z,84.61
2023-03-21T20:02:31.196Z,84.59
2023-03-21T20:04:53.481Z,84.54
2023-03-21T20:07:21.072Z,85.12
2023-03-21T20:09:52.541Z,84.97
2023-03-21T20:12:23.105Z,84.91
2023-03-21T20:14:58.060Z,85.02
2023-03-21T20:17:33.025Z,85.50
2023-03-21T20:20:00.340Z,85.52
2023-03-21T20:22:53.594Z,85.08
2023-03-21T20:25:16.142Z,85.24
2023-03-21T20:27:44.966Z,85.29
2023-03-21T20:30:17.119Z,85.13
2023-03-21T20:32:47.137Z,85.00
2023-03-21T20:35:29.623Z,85.13
2023-03-21T20:38:04.253Z,85.37
2023-03-21T20:40:31.601Z,85.19
2023-03-21T20:43:03.062Z,85.48
2023-03-21T20:45:43.730Z,85.43
2023-03-21T20:48:11.378Z,85.37
2023-03-21T20:50:39.580Z,85.57
2023-03-21T20:53:08.856Z,85.83
2023-03-21T20:55:37.409Z,85.60
2023-03-21T20:58:26.710Z,85.55
2023-03-21T21:00:52.454Z,85.44
2023-03-21T21:03:21.054Z,85.08
2023-03-21T21:05:48.457Z,85.52
2023-03-21T21:08:19.257Z,85.33
2023-03-21T21:11:27.075Z,85.44
2023-03-21T21:13:37.610Z,85.27
2023-03-21T21:16:07.505Z,85.43
2023-03-21T21:18:36.692Z,85.61
2023-03-21T21:21:06.610Z,85.55
2023-03-21T21:23:37.395Z,85.67
2023-03-21T21:26:07.806Z,85.68
2023-03-21T21:28:38.560Z,85.56
2023-03-21T21:31:14.710Z,85.64
2023-03-21T21:33:43.029Z,85.58
2023-03-21T21:36:13.048Z,85.83
2023-03-21T21:38:41.348Z,85.97
2023-03-21T21:41:17.272Z,86.01
2023-03-21T21:43:45.552Z,86.11
2023-03-21T21:46:13.694Z,86.24
2023-03-21T21:48:42.550Z,86.26
2023-03-21T21:51:10.636Z,86.18
2023-03-21T21:53:38.997Z,86.17
2023-03-21T21:56:06.984Z,85.99
2023-03-21T21:58:38.703Z,86.18
2023-03-21T22:01:07.265Z,86.54
2023-03-21T22:03:41.193Z,87.71
2023-03-21T22:06:10.243Z,87.77
2023-03-21T22:08:38.496Z,87.81
2023-03-21T22:11:06.803Z,88.32
2023-03-21T22:13:34.498Z,89.61
2023-03-21T22:16:01.968Z,89.29
2023-03-21T22:18:29.750Z,89.40
2023-03-21T22:20:57.132Z,89.26
2023-03-21T22:23:26.169Z,89.12
2023-03-21T22:25:54.568Z,88.84
2023-03-21T22:28:25.651Z,89.32
2023-03-21T22:30:56.221Z,89.25
2023-03-21T22:33:24.280Z,89.02
2023-03-21T22:35:53.000Z,89.03
2023-03-21T22:38:24.342Z,89.47
2023-03-21T22:41:00.300Z,89.23
2023-03-21T22:43:29.350Z,89.01
2023-03-21T22:45:56.730Z,89.10
2023-03-21T22:48:24.369Z,91.24
2023-03-21T22:50:51.676Z,90.76
2023-03-21T22:53:19.379Z,89.86
2023-03-21T22:55:46.820Z,89.88
2023-03-21T22:58:14.462Z,90.88
2023-03-21T23:00:41.835Z,91.46
2023-03-21T23:03:09.499Z,91.97
2023-03-21T23:05:42.173Z,91.79
2023-03-21T23:08:10.989Z,93.21
2023-03-21T23:10:41.126Z,93.76
2023-03-21T23:13:09.179Z,93.91
2023-03-21T23:15:38.763Z,94.27
2023-03-21T23:18:07.082Z,93.86
2023-03-21T23:20:34.318Z,94.12
2023-03-21T23:23:02.402Z,94.77
2023-03-21T23:25:30.549Z,94.46
2023-03-21T23:27:58.224Z,94.42
2023-03-21T23:30:26.486Z,94.05
2023-03-21T23:32:54.026Z,94.37
2023-03-21T23:35:21.454Z,94.52
2023-03-21T23:37:52.786Z,94.49
2023-03-21T23:40:21.318Z,94.67
2023-03-21T23:42:48.993Z,95.64
2023-03-21T23:45:16.388Z,95.62
2023-03-21T23:47:44.091Z,95.94
2023-03-21T23:50:11.628Z,95.17
2023-03-21T23:52:41.682Z,95.05
2023-03-21T23:55:09.709Z,95.15
2023-03-21T23:57:41.783Z,95.40
